createdAt,value
2022-11-23T00:00:44.922Z,31.03
2022-11-23T00:03:16.244Z,31.43
2022-11-23T00:05:43.485Z,30.40
2022-11-23T00:08:10.754Z,29.17
2022-11-23T00:10:38.145Z,30.27
2022-11-23T00:13:05.385Z,28.50
2022-11-23T00:15:32.617Z,32.63
2022-11-23T00:18:02.694Z,27.63
2022-11-23T00:20:29.938Z,31.03
2022-11-23T00:22:57.458Z,30.37
2022-11-23T00:25:24.758Z,31.17
2022-11-23T00:27:52.016Z,31.40
2022-11-23T00:30:19.239Z,30.60
2022-11-23T00:32:46.705Z,29.73
2022-11-23T00:35:13.996Z,30.23
2022-11-23T00:37:41.252Z,27.70
2022-11-23T00:40:09.382Z,26.33
2022-11-23T00:42:38.331Z,26.47
2022-11-23T00:45:06.435Z,30.20
2022-11-23T00:47:33.679Z,25.63
2022-11-23T00:50:00.941Z,28.70
2022-11-23T00:52:28.272Z,28.03
2022-11-23T00:54:55.500Z,27.40
2022-11-23T00:57:22.896Z,26.43
2022-11-23T00:59:50.145Z,29.70
2022-11-23T01:02:17.401Z,31.33
2022-11-23T01:04:44.674Z,27.90
2022-11-23T01:07:12.275Z,30.60
2022-11-23T01:09:40.516Z,28.63
2022-11-23T01:12:08.081Z,30.63
2022-11-23T01:14:35.519Z,30.00
2022-11-23T01:17:05.446Z,28.07
2022-11-23T01:19:35.463Z,28.53
2022-11-23T01:22:02.857Z,28.53
2022-11-23T01:24:30.336Z,28.33
2022-11-23T01:26:57.730Z,29.17
2022-11-23T01:29:27.341Z,28.63
2022-11-23T01:31:54.569Z,30.60
2022-11-23T01:34:22.281Z,30.53
2022-11-23T01:36:50.721Z,30.60
2022-11-23T01:39:18.097Z,30.43
2022-11-23T01:41:46.413Z,29.17
2022-11-23T01:44:32.258Z,30.23
2022-11-23T01:47:01.909Z,26.97
2022-11-23T01:49:35.560Z,28.63
2022-11-23T01:52:12.917Z,30.10
2022-11-23T01:54:56.635Z,26.93
2022-11-23T01:57:34.717Z,24.57
2022-11-23T02:00:02.307Z,27.93
2022-11-23T02:02:47.778Z,24.97
2022-11-23T02:05:18.569Z,28.20
2022-11-23T02:07:48.109Z,25.87
2022-11-23T02:10:16.461Z,30.33
2022-11-23T02:12:43.765Z,27.80
2022-11-23T02:15:13.044Z,30.50
2022-11-23T02:17:43.633Z,27.43
2022-11-23T02:20:13.999Z,30.60
2022-11-23T02:23:08.347Z,29.30
2022-11-23T02:25:35.560Z,27.20
2022-11-23T02:28:03.673Z,25.77
2022-11-23T02:30:32.647Z,27.13
2022-11-23T02:32:59.909Z,24.47
2022-11-23T02:35:27.257Z,29.63
2022-11-23T02:37:54.798Z,24.20
2022-11-23T02:40:33.861Z,26.13
2022-11-23T02:43:01.609Z,25.07
2022-11-23T02:45:29.494Z,21.13
2022-11-23T02:47:56.988Z,22.87
2022-11-23T02:50:24.339Z,23.67
2022-11-23T02:52:51.598Z,22.87
2022-11-23T02:55:19.279Z,22.37
2022-11-23T02:57:47.575Z,20.97
2022-11-23T03:00:17.427Z,24.27
2022-11-23T03:02:45.022Z,25.13
2022-11-23T03:05:12.874Z,22.77
2022-11-23T03:07:40.241Z,22.40
2022-11-23T03:10:08.373Z,22.20
2022-11-23T03:12:35.891Z,24.57
2022-11-23T03:15:04.344Z,22.40
2022-11-23T03:17:33.519Z,20.30
2022-11-23T03:20:01.056Z,21.90
2022-11-23T03:22:30.627Z,20.57
2022-11-23T03:24:58.939Z,21.83
2022-11-23T03:27:26.579Z,22.20
2022-11-23T03:29:54.110Z,23.10
2022-11-23T03:32:21.897Z,21.83
2022-11-23T03:34:53.399Z,21.80
2022-11-23T03:37:22.476Z,22.33
2022-11-23T03:39:49.997Z,20.87
2022-11-23T03:42:43.057Z,20.67
2022-11-23T03:45:10.901Z,18.73
2022-11-23T03:47:38.290Z,18.53
2022-11-23T03:50:06.270Z,20.23
2022-11-23T03:52:33.609Z,18.43
2022-11-23T03:55:01.173Z,17.90
2022-11-23T03:57:28.497Z,18.93
2022-11-23T03:59:56.093Z,16.70
2022-11-23T04:02:23.544Z,15.63
2022-11-23T04:05:01.972Z,15.67
2022-11-23T04:07:50.374Z,15.67
2022-11-23T04:10:19.336Z,15.77
2022-11-23T04:13:21.980Z,15.20
2022-11-23T04:15:50.262Z,14.03
2022-11-23T04:18:18.391Z,15.37
2022-11-23T04:20:46.498Z,14.80
2022-11-23T04:23:13.928Z,15.50
2022-11-23T04:25:42.987Z,14.57
2022-11-23T04:28:10.611Z,13.87
2022-11-23T04:30:38.861Z,14.60
2022-11-23T04:33:06.983Z,14.47
2022-11-23T04:35:36.238Z,15.73
2022-11-23T04:38:03.628Z,14.53
2022-11-23T04:40:32.333Z,14.17
2022-11-23T04:43:03.701Z,13.30
2022-11-23T04:45:41.037Z,14.33
2022-11-23T04:48:15.103Z,13.97
2022-11-23T04:50:46.641Z,15.50
2022-11-23T04:53:18.050Z,17.00
2022-11-23T04:55:47.625Z,17.47
2022-11-23T04:58:16.543Z,15.07
2022-11-23T05:00:44.183Z,16.43
2022-11-23T05:03:13.615Z,16.27
2022-11-23T05:05:42.874Z,19.00
2022-11-23T05:08:10.708Z,19.20
2022-11-23T05:10:47.479Z,21.07
2022-11-23T05:13:14.952Z,23.30
2022-11-23T05:15:43.286Z,19.40
2022-11-23T05:18:14.816Z,24.93
2022-11-23T05:20:42.521Z,20.27
2022-11-23T05:23:11.227Z,17.33
2022-11-23T05:25:41.799Z,19.60
2022-11-23T05:28:38.895Z,21.13
2022-11-23T05:31:05.168Z,19.77
2022-11-23T05:33:32.658Z,17.73
2022-11-23T05:36:00.527Z,18.63
2022-11-23T05:38:36.536Z,16.10
2022-11-23T05:41:09.267Z,14.80
2022-11-23T05:43:39.621Z,14.27
2022-11-23T05:46:09.655Z,14.27
2022-11-23T05:48:38.681Z,13.57
2022-11-23T05:51:10.897Z,14.33
2022-11-23T05:53:43.909Z,13.63
2022-11-23T05:56:19.822Z,12.50
2022-11-23T05:58:59.505Z,13.07
2022-11-23T06:01:26.818Z,15.27
2022-11-23T06:03:59.852Z,14.20
2022-11-23T06:06:29.807Z,12.83
2022-11-23T06:08:57.338Z,9.23
2022-11-23T06:11:24.675Z,9.67
2022-11-23T06:13:52.343Z,7.77
2022-11-23T06:16:20.052Z,8.00
2022-11-23T06:18:59.449Z,9.17
2022-11-23T06:21:26.701Z,7.60
2022-11-23T06:23:53.941Z,7.30
2022-11-23T06:26:22.562Z,8.13
2022-11-23T06:28:49.795Z,7.23
2022-11-23T06:31:18.387Z,6.00
2022-11-23T06:33:45.614Z,6.77
2022-11-23T06:36:13.789Z,6.30
2022-11-23T06:38:46.861Z,6.30
2022-11-23T06:41:17.996Z,6.40
2022-11-23T06:43:48.079Z,6.07
2022-11-23T06:46:24.513Z,5.20
2022-11-23T06:48:51.926Z,5.30
2022-11-23T06:51:19.189Z,5.07
2022-11-23T06:53:48.394Z,5.00
2022-11-23T06:56:17.429Z,5.63
2022-11-23T06:58:46.269Z,6.43
2022-11-23T07:01:19.006Z,5.67
2022-11-23T07:03:53.785Z,5.50
2022-11-23T07:06:34.400Z,5.23
2022-11-23T07:09:07.884Z,5.37
2022-11-23T07:12:06.957Z,4.90
2022-11-23T07:14:35.219Z,6.00
2022-11-23T07:17:02.551Z,6.17
2022-11-23T07:19:30.005Z,6.57
2022-11-23T07:21:59.802Z,6.57
2022-11-23T07:24:27.056Z,6.70
2022-11-23T07:26:54.347Z,6.00
2022-11-23T07:29:21.680Z,5.47
2022-11-23T07:31:49.314Z,5.00
2022-11-23T07:34:16.619Z,5.70
2022-11-23T07:36:44.458Z,5.07
2022-11-23T07:39:11.890Z,5.27
2022-11-23T07:41:39.162Z,4.60
2022-11-23T07:44:09.417Z,4.20
2022-11-23T07:46:37.078Z,4.73
2022-11-23T07:49:04.536Z,4.43
2022-11-23T07:51:31.989Z,5.87
2022-11-23T07:53:59.317Z,9.43
2022-11-23T07:56:26.616Z,6.03
2022-11-23T07:58:53.985Z,4.40
2022-11-23T08:01:21.272Z,4.03
2022-11-23T08:03:49.299Z,4.40
2022-11-23T08:06:17.113Z,3.67
2022-11-23T08:08:44.914Z,4.43
2022-11-23T08:11:14.779Z,5.07
2022-11-23T08:13:42.046Z,3.80
2022-11-23T08:16:09.546Z,4.97
2022-11-23T08:18:37.085Z,4.50
2022-11-23T08:21:04.566Z,4.60
2022-11-23T08:23:31.780Z,4.67
2022-11-23T08:25:59.163Z,5.13
2022-11-23T08:28:26.682Z,4.70
2022-11-23T08:30:54.302Z,4.97
2022-11-23T08:33:21.629Z,5.43
2022-11-23T08:35:48.855Z,5.37
2022-11-23T08:38:16.227Z,6.53
2022-11-23T08:40:43.508Z,5.60
2022-11-23T08:43:10.895Z,4.83
2022-11-23T08:45:38.218Z,5.30
2022-11-23T08:48:06.007Z,5.30
2022-11-23T08:50:34.649Z,5.13
2022-11-23T08:53:02.046Z,5.70
2022-11-23T08:55:30.061Z,6.60
2022-11-23T08:58:00.795Z,4.87
2022-11-23T09:00:29.566Z,4.70
2022-11-23T09:02:59.133Z,6.00
2022-11-23T09:05:30.247Z,5.90
2022-11-23T09:08:01.181Z,5.23
2022-11-23T09:10:28.911Z,4.87
2022-11-23T09:12:56.334Z,5.07
2022-11-23T09:15:23.670Z,4.93
2022-11-23T09:17:50.895Z,6.27
2022-11-23T09:20:18.511Z,4.50
2022-11-23T09:22:51.412Z,4.03
2022-11-23T09:25:19.060Z,3.57
2022-11-23T09:27:46.323Z,9.93
2022-11-23T09:30:14.437Z,5.40
2022-11-23T09:32:41.811Z,6.83
2022-11-23T09:35:09.456Z,5.27
2022-11-23T09:37:36.990Z,4.67
2022-11-23T09:40:04.933Z,4.97
2022-11-23T09:43:07.706Z,5.03
2022-11-23T09:45:51.093Z,5.20
2022-11-23T09:48:21.161Z,5.60
2022-11-23T09:50:50.927Z,5.23
2022-11-23T09:53:49.585Z,5.17
2022-11-23T09:56:30.008Z,6.80
2022-11-23T09:59:06.277Z,5.63
2022-11-23T10:01:33.767Z,6.33
2022-11-23T10:04:01.523Z,7.27
2022-11-23T10:06:37.362Z,7.43
2022-11-23T10:09:13.880Z,5.67
2022-11-23T10:11:53.390Z,5.90
2022-11-23T10:14:39.096Z,5.10
2022-11-23T10:17:42.342Z,7.90
2022-11-23T10:20:48.571Z,5.53
2022-11-23T10:23:24.454Z,5.57
2022-11-23T10:25:52.645Z,4.63
2022-11-23T10:28:21.933Z,4.77
2022-11-23T10:31:13.610Z,5.37
2022-11-23T10:34:11.613Z,6.60
2022-11-23T10:36:39.652Z,6.60
2022-11-23T10:39:19.927Z,5.60
2022-11-23T10:41:47.640Z,5.93
2022-11-23T10:44:34.453Z,5.33
2022-11-23T10:47:02.366Z,5.60
2022-11-23T10:49:35.775Z,6.50
2022-11-23T10:52:05.918Z,5.13
2022-11-23T10:54:35.355Z,3.87
2022-11-23T10:57:22.046Z,5.00
2022-11-23T11:00:13.505Z,4.70
2022-11-23T11:02:45.862Z,5.03
2022-11-23T11:05:46.423Z,4.70
2022-11-23T11:08:16.914Z,5.30
2022-11-23T11:10:50.141Z,4.67
2022-11-23T11:13:44.593Z,4.03
2022-11-23T11:16:26.601Z,5.17
2022-11-23T11:18:53.999Z,4.40
2022-11-23T11:21:35.985Z,5.20
2022-11-23T11:24:05.076Z,3.90
2022-11-23T11:26:35.904Z,3.73
2022-11-23T11:29:06.818Z,3.63
2022-11-23T11:31:57.891Z,3.20
2022-11-23T11:34:46.444Z,3.23
2022-11-23T11:37:32.577Z,4.40
2022-11-23T11:40:21.767Z,3.40
2022-11-23T11:43:07.197Z,3.23
2022-11-23T11:45:54.438Z,3.53
2022-11-23T11:48:40.894Z,2.90
2022-11-23T11:51:30.184Z,3.00
2022-11-23T11:54:21.826Z,2.57
2022-11-23T11:56:55.735Z,2.87
2022-11-23T11:59:45.261Z,3.70
2022-11-23T12:02:27.699Z,2.30
2022-11-23T12:05:14.536Z,2.50
2022-11-23T12:08:02.188Z,2.03
2022-11-23T12:10:35.637Z,2.10
2022-11-23T12:13:03.157Z,2.43
2022-11-23T12:15:50.582Z,2.30
2022-11-23T12:18:27.249Z,2.40
2022-11-23T12:21:06.911Z,2.40
2022-11-23T12:23:49.415Z,3.00
2022-11-23T12:26:16.752Z,1.97
2022-11-23T12:28:53.092Z,2.30
2022-11-23T12:31:48.538Z,2.40
2022-11-23T12:34:38.127Z,3.83
2022-11-23T12:37:08.509Z,2.37
2022-11-23T12:39:35.840Z,3.30
2022-11-23T12:42:26.116Z,3.27
2022-11-23T12:45:24.141Z,3.17
2022-11-23T12:48:31.905Z,2.27
2022-11-23T12:51:27.064Z,2.30
2022-11-23T12:54:03.329Z,1.97
2022-11-23T12:57:00.155Z,2.30
2022-11-23T13:00:00.541Z,2.23
2022-11-23T13:02:27.875Z,2.07
2022-11-23T13:05:20.460Z,2.33
2022-11-23T13:08:20.651Z,3.97
2022-11-23T13:11:07.308Z,2.23
2022-11-23T13:13:55.619Z,2.40
2022-11-23T13:16:31.955Z,2.33
2022-11-23T13:19:08.373Z,2.30
2022-11-23T13:21:43.892Z,2.63
2022-11-23T13:24:34.663Z,2.33
2022-11-23T13:27:31.640Z,3.80
2022-11-23T13:30:07.121Z,3.20
2022-11-23T13:32:40.433Z,2.93
2022-11-23T13:35:17.067Z,1.90
2022-11-23T13:37:56.655Z,2.73
2022-11-23T13:40:34.463Z,2.67
2022-11-23T13:43:31.834Z,1.90
2022-11-23T13:46:30.237Z,2.30
2022-11-23T13:49:00.085Z,4.97
2022-11-23T13:51:35.024Z,3.47
2022-11-23T13:54:05.543Z,2.20
2022-11-23T13:56:36.647Z,2.77
2022-11-23T13:59:22.786Z,2.47
2022-11-23T14:02:22.591Z,2.90
2022-11-23T14:04:49.961Z,3.17
2022-11-23T14:07:26.370Z,2.13
2022-11-23T14:10:10.036Z,4.97
2022-11-23T14:12:58.776Z,3.10
2022-11-23T14:15:30.048Z,2.33
2022-11-23T14:18:21.783Z,2.83
2022-11-23T14:21:12.809Z,2.77
2022-11-23T14:24:17.904Z,2.43
2022-11-23T14:27:31.245Z,2.60
2022-11-23T14:30:06.024Z,2.60
2022-11-23T14:33:02.058Z,2.40
2022-11-23T14:35:49.161Z,2.63
2022-11-23T14:38:50.389Z,2.40
2022-11-23T14:41:23.613Z,2.60
2022-11-23T14:43:52.278Z,3.57
2022-11-23T14:46:22.539Z,2.43
2022-11-23T14:48:50.373Z,3.10
2022-11-23T14:51:23.149Z,5.20
2022-11-23T14:53:54.401Z,5.70
2022-11-23T14:56:27.518Z,90.87
2022-11-23T14:59:01.574Z,10.37
2022-11-23T15:01:29.079Z,5.93
2022-11-23T15:04:06.566Z,5.20
2022-11-23T15:06:42.354Z,11.87
2022-11-23T15:09:49.707Z,6.67
2022-11-23T15:12:23.425Z,3.63
2022-11-23T15:14:51.805Z,5.80
2022-11-23T15:17:21.400Z,9.63
2022-11-23T15:19:56.813Z,14.23
2022-11-23T15:22:25.099Z,12.07
2022-11-23T15:24:52.831Z,31.13
2022-11-23T15:27:29.129Z,5.43
2022-11-23T15:29:59.430Z,4.13
2022-11-23T15:32:32.532Z,3.10
2022-11-23T15:35:06.655Z,4.53
2022-11-23T15:37:41.014Z,3.60
2022-11-23T15:40:16.858Z,4.00
2022-11-23T15:42:45.598Z,4.00
2022-11-23T15:45:33.892Z,3.63
2022-11-23T15:48:10.295Z,4.13
2022-11-23T15:50:52.672Z,5.90
2022-11-23T15:53:24.612Z,4.20
2022-11-23T15:55:53.333Z,4.13
2022-11-23T15:58:21.853Z,4.13
2022-11-23T16:01:03.857Z,4.67
2022-11-23T16:04:01.108Z,4.67
2022-11-23T16:06:42.186Z,4.10
2022-11-23T16:09:53.800Z,10.20
2022-11-23T16:12:34.166Z,6.57
2022-11-23T16:15:30.720Z,8.13
2022-11-23T16:18:02.224Z,12.30
2022-11-23T16:20:29.968Z,34.43
2022-11-23T16:23:00.249Z,23.63
2022-11-23T16:25:33.563Z,25.30
2022-11-23T16:28:17.582Z,17.97
2022-11-23T16:30:48.950Z,15.80
2022-11-23T16:33:19.085Z,23.80
2022-11-23T16:35:48.138Z,48.77
2022-11-23T16:38:15.688Z,25.10
2022-11-23T16:40:44.278Z,36.83
2022-11-23T16:43:12.598Z,18.43
2022-11-23T16:45:45.216Z,31.67
2022-11-23T16:48:37.065Z,26.33
2022-11-23T16:51:05.195Z,28.53
2022-11-23T16:53:53.398Z,30.67
2022-11-23T16:56:24.056Z,17.37
2022-11-23T16:58:52.606Z,14.00
2022-11-23T17:01:24.351Z,22.77
2022-11-23T17:03:52.031Z,15.10
2022-11-23T17:06:23.043Z,22.43
2022-11-23T17:08:59.252Z,18.23
2022-11-23T17:11:28.527Z,16.47
2022-11-23T17:13:57.021Z,10.73
2022-11-23T17:16:26.645Z,15.73
2022-11-23T17:18:54.204Z,10.30
2022-11-23T17:21:21.641Z,10.23
2022-11-23T17:23:49.197Z,11.13
2022-11-23T17:26:38.758Z,7.83
2022-11-23T17:29:10.454Z,10.00
2022-11-23T17:31:37.828Z,13.23
2022-11-23T17:34:05.130Z,80.03
2022-11-23T17:36:32.546Z,13.77
2022-11-23T17:38:59.933Z,9.47
2022-11-23T17:41:27.206Z,14.87
2022-11-23T17:43:55.231Z,15.27
2022-11-23T17:46:24.048Z,10.33
2022-11-23T17:48:58.910Z,12.67
2022-11-23T17:51:26.401Z,20.13
2022-11-23T17:53:53.705Z,29.63
2022-11-23T17:56:25.983Z,31.83
2022-11-23T17:58:53.837Z,22.77
2022-11-23T18:01:22.388Z,19.43
2022-11-23T18:03:50.574Z,16.40
2022-11-23T18:06:21.129Z,15.87
2022-11-23T18:08:49.642Z,14.90
2022-11-23T18:11:17.754Z,12.33
2022-11-23T18:13:47.991Z,11.80
2022-11-23T18:16:16.243Z,10.60
2022-11-23T18:18:43.671Z,10.50
2022-11-23T18:21:12.619Z,9.57
2022-11-23T18:23:41.185Z,8.20
2022-11-23T18:26:20.875Z,8.70
2022-11-23T18:28:49.074Z,8.63
2022-11-23T18:31:17.183Z,8.53
2022-11-23T18:33:45.977Z,12.13
2022-11-23T18:36:14.049Z,8.90
2022-11-23T18:38:45.092Z,9.43
2022-11-23T18:41:16.045Z,8.40
2022-11-23T18:43:44.754Z,8.97
2022-11-23T18:46:18.937Z,11.03
2022-11-23T18:48:47.339Z,11.00
2022-11-23T18:51:15.936Z,8.87
2022-11-23T18:53:47.280Z,8.33
2022-11-23T18:56:14.566Z,8.73
2022-11-23T18:58:43.734Z,11.00
2022-11-23T19:01:17.671Z,24.90
2022-11-23T19:03:47.056Z,28.30
2022-11-23T19:06:15.482Z,28.30
2022-11-23T19:08:51.042Z,29.33
2022-11-23T19:11:23.047Z,25.57
2022-11-23T19:13:52.582Z,36.37
2022-11-23T19:16:22.353Z,31.70
2022-11-23T19:19:04.439Z,42.70
2022-11-23T19:21:34.168Z,60.33
2022-11-23T19:24:02.167Z,30.77
2022-11-23T19:26:30.409Z,47.23
2022-11-23T19:28:58.653Z,42.27
2022-11-23T19:31:30.655Z,32.63
2022-11-23T19:34:04.148Z,37.13
2022-11-23T19:36:33.343Z,33.70
2022-11-23T19:39:00.746Z,24.93
2022-11-23T19:41:30.767Z,29.60
2022-11-23T19:44:00.384Z,19.17
2022-11-23T19:46:29.140Z,27.43
2022-11-23T19:49:00.009Z,19.50
2022-11-23T19:51:27.953Z,21.87
2022-11-23T19:53:57.991Z,17.73
2022-11-23T19:56:27.586Z,18.13
2022-11-23T19:58:59.481Z,15.37
2022-11-23T20:01:32.471Z,16.77
2022-11-23T20:04:09.644Z,20.33
2022-11-23T20:06:42.073Z,20.33
2022-11-23T20:09:12.628Z,15.80
2022-11-23T20:11:40.945Z,19.77
2022-11-23T20:14:10.919Z,12.33
2022-11-23T20:16:38.521Z,12.03
2022-11-23T20:19:07.858Z,13.43
2022-11-23T20:21:36.484Z,16.03
2022-11-23T20:24:07.409Z,12.73
2022-11-23T20:26:38.614Z,11.00
2022-11-23T20:29:07.027Z,11.23
2022-11-23T20:31:35.691Z,11.67
2022-11-23T20:34:07.105Z,12.47
2022-11-23T20:36:37.404Z,12.67
2022-11-23T20:39:06.957Z,11.20
2022-11-23T20:41:36.260Z,13.57
2022-11-23T20:44:14.234Z,12.50
2022-11-23T20:49:30.417Z,12.17
2022-11-23T20:51:58.331Z,12.80
2022-11-23T20:54:25.582Z,11.47
2022-11-23T20:56:52.843Z,15.13
2022-11-23T20:59:20.592Z,15.63
2022-11-23T21:01:47.972Z,11.77
2022-11-23T21:04:15.393Z,15.60
2022-11-23T21:06:43.018Z,14.20
2022-11-23T21:09:11.111Z,13.23
2022-11-23T21:11:57.025Z,11.57
2022-11-23T21:14:27.890Z,10.97
2022-11-23T21:16:58.583Z,12.50
2022-11-23T21:19:34.650Z,11.33
2022-11-23T21:22:13.539Z,12.33
2022-11-23T21:24:41.565Z,11.77
2022-11-23T21:27:12.197Z,11.43
2022-11-23T21:29:39.568Z,12.67
2022-11-23T21:32:07.040Z,12.80
2022-11-23T21:34:34.591Z,13.73
2022-11-23T21:37:02.615Z,14.60
2022-11-23T21:39:31.017Z,13.23
2022-11-23T21:41:58.790Z,12.93
2022-11-23T21:44:26.757Z,14.37
2022-11-23T21:46:54.099Z,13.77
2022-11-23T21:49:21.889Z,13.70
2022-11-23T21:51:49.408Z,14.40
2022-11-23T21:54:16.758Z,14.73
2022-11-23T21:56:46.023Z,13.63
2022-11-23T21:59:14.260Z,13.27
2022-11-23T22:01:42.221Z,16.20
2022-11-23T22:04:15.306Z,17.57
2022-11-23T22:06:45.064Z,14.87
2022-11-23T22:09:13.153Z,13.40
2022-11-23T22:11:43.033Z,16.13
2022-11-23T22:14:15.591Z,15.07
2022-11-23T22:16:44.919Z,13.60
2022-11-23T22:19:14.228Z,14.23
2022-11-23T22:21:43.412Z,11.53
2022-11-23T22:24:13.527Z,12.60
2022-11-23T22:26:41.379Z,16.03
2022-11-23T22:29:09.826Z,13.20
2022-11-23T22:31:37.529Z,13.03
2022-11-23T22:34:07.254Z,14.07
2022-11-23T22:36:34.646Z,15.10
2022-11-23T22:39:04.987Z,14.97
2022-11-23T22:41:39.164Z,14.07
2022-11-23T22:44:08.554Z,16.07
2022-11-23T22:46:36.631Z,12.97
2022-11-23T22:49:04.692Z,12.30
2022-11-23T22:51:32.153Z,12.70
2022-11-23T22:54:00.943Z,13.60
2022-11-23T22:56:30.449Z,12.60
2022-11-23T22:58:57.956Z,14.73
2022-11-23T23:01:28.563Z,12.37
2022-11-23T23:03:57.326Z,13.00
2022-11-23T23:06:27.386Z,12.10
2022-11-23T23:08:57.181Z,11.77
2022-11-23T23:11:26.793Z,12.60
2022-11-23T23:13:54.474Z,11.70
2022-11-23T23:16:22.188Z,13.53
2022-11-23T23:18:49.974Z,11.77
2022-11-23T23:21:19.965Z,11.17
2022-11-23T23:23:49.646Z,12.37
2022-11-23T23:26:18.720Z,12.67
2022-11-23T23:28:46.653Z,12.77
2022-11-23T23:31:16.298Z,10.50
2022-11-23T23:33:47.083Z,10.43
2022-11-23T23:36:19.881Z,9.47
2022-11-23T23:38:47.401Z,10.63
2022-11-23T23:41:15.195Z,10.60
2022-11-23T23:43:42.661Z,10.17
2022-11-23T23:46:12.552Z,10.43
2022-11-23T23:48:40.664Z,8.93
2022-11-23T23:51:09.867Z,10.13
2022-11-23T23:53:37.559Z,10.27
2022-11-23T23:56:07.958Z,10.83
2022-11-23T23:58:36.082Z,11.00
